Time;durP1;ratioP1;P1;durP2;ratioP2;P2;SDS_P1;SDS_P2;PMS_P1;PMS_P2;Temp;Humidity;BMP_temperature;BMP_pressure;BME280_temperature;BME280_humidity;BME280_pressure;Samples;Min_cycle;Max_cycle;Signal;HPM_P1;HPM_P2
2021/05/01 00:01:05;;;;;;;31.88;15.07;;;;;;;5.91;88.06;95804.25;4954663;28;20040;-69
2021/05/01 00:03:31;;;;;;;27.27;13.70;;;;;;;5.92;87.66;95801.47;4938628;29;20101;-67
2021/05/01 00:05:59;;;;;;;27.33;13.90;;;;;;;5.85;88.12;95798.06;4938737;29;20130;-68
2021/05/01 00:08:28;;;;;;;30.10;14.80;;;;;;;5.81;87.87;95796.91;4938679;29;20058;-68
2021/05/01 00:10:56;;;;;;;31.33;16.08;;;;;;;5.86;88.73;95794.44;4938011;29;20075;-68
2021/05/01 00:13:21;;;;;;;29.37;15.27;;;;;;;5.77;88.09;95795.75;4937550;29;20044;-68
2021/05/01 00:15:47;;;;;;;29.75;15.35;;;;;;;5.81;88.47;95802.13;4938000;29;20313;-68
2021/05/01 00:18:13;;;;;;;30.90;15.38;;;;;;;5.82;88.67;95798.53;4937864;29;20253;-68
2021/05/01 00:20:38;;;;;;;32.63;15.93;;;;;;;5.85;88.59;95786.84;4952275;28;20043;-68
2021/05/01 00:23:05;;;;;;;28.90;13.88;;;;;;;5.94;88.58;95781.16;4936888;29;20055;-67
2021/05/01 00:25:31;;;;;;;29.77;13.95;;;;;;;5.94;88.21;95791.59;4937051;29;20412;-68
2021/05/01 00:27:59;;;;;;;29.08;14.52;;;;;;;5.88;88.56;95782.00;4937117;29;20047;-68
2021/05/01 00:30:25;;;;;;;31.98;14.90;;;;;;;5.84;89.05;95785.25;4951765;28;20046;-68
2021/05/01 00:32:51;;;;;;;31.42;15.18;;;;;;;5.81;88.65;95791.69;4937095;29;20115;-67
2021/05/01 00:35:16;;;;;;;27.70;14.18;;;;;;;5.76;88.39;95786.34;4936745;29;20131;-67
2021/05/01 00:37:42;;;;;;;33.25;15.88;;;;;;;5.72;89.34;95791.19;4937031;29;20047;-67
2021/05/01 00:40:10;;;;;;;33.88;16.52;;;;;;;5.70;89.33;95776.72;4936323;29;20102;-68
2021/05/01 00:42:36;;;;;;;30.63;15.98;;;;;;;5.63;89.90;95784.63;4936916;29;20094;-68
2021/05/01 00:45:03;;;;;;;33.08;16.58;;;;;;;5.61;90.46;95772.81;4936946;29;20048;-67
2021/05/01 00:47:29;;;;;;;39.67;18.77;;;;;;;5.70;90.80;95784.56;4937028;29;20103;-69
2021/05/01 00:49:57;;;;;;;35.55;17.08;;;;;;;5.68;89.63;95776.16;4937006;29;20051;-67
2021/05/01 00:52:23;;;;;;;32.90;16.80;;;;;;;5.50;89.48;95784.75;4936835;29;20044;-68
2021/05/01 00:54:51;;;;;;;37.35;18.15;;;;;;;5.56;90.80;95777.88;4936606;29;20043;-67
2021/05/01 00:57:17;;;;;;;35.13;16.70;;;;;;;5.49;89.82;95791.78;4936834;29;20047;-67
2021/05/01 00:59:43;;;;;;;36.70;16.63;;;;;;;5.53;90.11;95772.06;4936877;29;20440;-68
2021/05/01 01:02:09;;;;;;;38.10;18.15;;;;;;;5.58;90.52;95779.25;4936638;29;20499;-67
2021/05/01 01:04:37;;;;;;;38.90;17.70;;;;;;;5.58;90.41;95775.84;4951197;29;20111;-67
2021/05/01 01:07:03;;;;;;;35.97;16.40;;;;;;;5.56;90.44;95770.06;4936547;29;20052;-68
2021/05/01 01:09:28;;;;;;;36.95;16.58;;;;;;;5.58;90.60;95781.88;4936566;29;20044;-67
2021/05/01 01:11:54;;;;;;;36.85;16.95;;;;;;;5.56;89.87;95778.69;4936658;29;20048;-67
2021/05/01 01:14:21;;;;;;;38.35;17.67;;;;;;;5.53;90.71;95773.88;4935222;29;20050;-68
2021/05/01 01:16:46;;;;;;;37.55;17.00;;;;;;;5.59;90.35;95767.81;4936393;29;20507;-67
2021/05/01 01:19:13;;;;;;;35.75;16.20;;;;;;;5.63;90.54;95779.41;4936347;29;20055;-67
2021/05/01 01:21:41;;;;;;;35.35;15.98;;;;;;;5.59;90.68;95785.28;4939100;29;20048;-68
2021/05/01 01:24:10;;;;;;;41.55;19.38;;;;;;;5.58;90.83;95775.84;4936380;29;20071;-68
2021/05/01 01:26:36;;;;;;;45.08;19.73;;;;;;;5.68;91.44;95776.16;4936040;29;20173;-68
2021/05/01 01:29:04;;;;;;;32.72;15.77;;;;;;;5.65;89.92;95776.56;4936723;29;20048;-68
2021/05/01 01:31:29;;;;;;;30.92;15.13;;;;;;;5.61;89.17;95770.22;4936111;29;20043;-68
2021/05/01 01:33:58;;;;;;;35.28;17.17;;;;;;;5.66;89.36;95772.97;4935962;29;20087;-68
2021/05/01 01:36:24;;;;;;;30.77;14.43;;;;;;;5.57;87.95;95774.25;4950766;29;20087;-67
2021/05/01 01:38:49;;;;;;;34.47;15.18;;;;;;;5.49;88.89;95773.53;4936157;29;20047;-66
2021/05/01 01:41:16;;;;;;;31.90;15.32;;;;;;;5.63;89.23;95781.22;4939028;29;20515;-67
2021/05/01 01:43:42;;;;;;;34.15;15.25;;;;;;;5.65;88.34;95787.00;4938620;29;20085;-67
2021/05/01 01:46:07;;;;;;;34.42;15.57;;;;;;;5.51;89.00;95797.59;4938385;29;20048;-68
2021/05/01 01:48:33;;;;;;;34.65;15.57;;;;;;;5.57;89.14;95789.91;4938086;29;20127;-68
2021/05/01 01:51:02;;;;;;;32.97;15.70;;;;;;;5.55;88.72;95786.72;4936021;29;20043;-68
2021/05/01 01:53:30;;;;;;;35.47;15.38;;;;;;;5.57;87.99;95798.53;4935992;29;20050;-68
2021/05/01 01:55:56;;;;;;;33.63;15.48;;;;;;;5.53;88.79;95790.34;4935683;29;20059;-67
2021/05/01 01:58:23;;;;;;;33.63;15.65;;;;;;;5.51;88.60;95781.13;4935575;29;20044;-67
2021/05/01 02:00:49;;;;;;;37.85;17.15;;;;;;;5.39;88.99;95782.84;4935407;29;20078;-67
2021/05/01 02:03:17;;;;;;;35.38;16.33;;;;;;;5.37;88.51;95784.84;4935378;29;20048;-68
2021/05/01 02:05:44;;;;;;;36.10;16.17;;;;;;;5.34;88.62;95783.47;4935364;29;20159;-67
2021/05/01 02:08:10;;;;;;;38.15;16.33;;;;;;;5.35;89.43;95787.69;4934588;29;20091;-68
2021/05/01 02:10:36;;;;;;;31.42;14.43;;;;;;;5.32;88.26;95777.66;4935626;29;20044;-67
2021/05/01 02:13:01;;;;;;;34.25;15.13;;;;;;;5.46;89.09;95781.78;4935613;29;20471;-67
2021/05/01 02:15:30;;;;;;;33.25;15.38;;;;;;;5.36;89.34;95775.44;4935216;29;20071;-68
2021/05/01 02:17:57;;;;;;;40.35;16.25;;;;;;;5.33;89.27;95784.50;4935469;29;20058;-68
2021/05/01 02:20:27;;;;;;;35.33;16.73;;;;;;;5.38;90.05;95792.50;4935423;29;20054;-68
2021/05/01 02:22:53;;;;;;;34.67;14.88;;;;;;;5.73;88.11;95794.59;4934124;29;20054;-67
2021/05/01 02:25:19;;;;;;;33.17;14.60;;;;;;;5.71;87.37;95800.03;4934066;29;20122;-67
2021/05/01 02:27:48;;;;;;;32.97;14.57;;;;;;;5.60;87.37;95802.53;4935274;29;20067;-67
2021/05/01 02:30:17;;;;;;;33.55;14.98;;;;;;;5.52;88.08;95799.19;4937898;29;20476;-68
2021/05/01 02:32:44;;;;;;;33.72;15.38;;;;;;;5.47;87.89;95795.59;4937888;29;20044;-68
2021/05/01 02:35:13;;;;;;;34.50;15.85;;;;;;;5.47;87.58;95785.97;4936597;29;20043;-68
2021/05/01 02:37:39;;;;;;;32.08;14.32;;;;;;;5.44;87.65;95764.75;4935138;29;20098;-67
2021/05/01 02:40:07;;;;;;;39.88;16.83;;;;;;;5.36;88.51;95768.41;4933757;29;20051;-67
2021/05/01 02:42:34;;;;;;;37.20;16.37;;;;;;;5.33;87.89;95784.50;4933771;29;20098;-67
2021/05/01 02:45:00;;;;;;;36.97;14.70;;;;;;;5.45;88.78;95777.56;4934915;29;20369;-67
2021/05/01 02:47:26;;;;;;;39.22;14.82;;;;;;;5.59;88.11;95774.84;4935056;29;20074;-67
2021/05/01 02:49:52;;;;;;;35.28;15.98;;;;;;;5.78;86.89;95771.25;4935080;29;20103;-68
2021/05/01 02:52:18;;;;;;;33.17;14.15;;;;;;;5.67;86.86;95780.59;4935158;29;20062;-68
2021/05/01 02:54:44;;;;;;;36.42;15.07;;;;;;;5.80;86.29;95774.44;4934821;29;20402;-68
2021/05/01 02:57:09;;;;;;;30.85;13.93;;;;;;;5.74;85.95;95764.84;4934824;29;20044;-68
2021/05/01 02:59:35;;;;;;;33.38;15.07;;;;;;;5.61;86.92;95754.56;4935010;29;20048;-67
2021/05/01 03:02:00;;;;;;;33.58;15.07;;;;;;;5.44;87.33;95757.72;4935068;29;20385;-68
2021/05/01 03:04:26;;;;;;;32.42;15.32;;;;;;;5.75;85.61;95746.38;4934746;29;20070;-68
2021/05/01 03:06:53;;;;;;;37.38;17.05;;;;;;;5.47;86.98;95733.81;4934923;29;20048;-67
2021/05/01 03:09:18;;;;;;;36.45;17.20;;;;;;;5.36;86.66;95739.72;4935050;29;20079;-67
2021/05/01 03:11:44;;;;;;;39.50;17.55;;;;;;;5.31;87.40;95736.97;4935187;29;20130;-67
2021/05/01 03:14:10;;;;;;;38.38;18.52;;;;;;;5.29;87.99;95725.16;4937377;29;20040;-68
2021/05/01 03:16:36;;;;;;;42.15;19.58;;;;;;;5.25;87.62;95727.38;4955156;29;20048;-67
2021/05/01 03:19:01;;;;;;;40.95;18.75;;;;;;;5.34;87.56;95738.34;4940853;29;20122;-68
2021/05/01 03:21:27;;;;;;;42.50;19.70;;;;;;;5.29;88.03;95722.56;4937827;29;20583;-66
2021/05/01 03:23:55;;;;;;;44.05;20.30;;;;;;;5.22;87.91;95720.81;4934745;29;20511;-68
2021/05/01 03:26:23;;;;;;;44.67;20.35;;;;;;;5.25;87.94;95714.34;4934701;29;20107;-67
2021/05/01 03:28:49;;;;;;;46.22;19.77;;;;;;;5.32;88.24;95720.28;4934728;29;20388;-67
2021/05/01 03:31:15;;;;;;;45.80;21.88;;;;;;;5.29;87.42;95730.38;4934770;29;20099;-69
2021/05/01 03:33:40;;;;;;;41.75;19.40;;;;;;;5.27;87.49;95714.91;4934466;29;20043;-68
2021/05/01 03:36:07;;;;;;;46.40;21.98;;;;;;;5.14;87.97;95704.63;4934767;29;20052;-68
2021/05/01 03:38:32;;;;;;;44.00;21.40;;;;;;;5.04;87.82;95707.69;4934608;29;20103;-68
2021/05/01 03:41:00;;;;;;;43.92;20.70;;;;;;;5.09;88.14;95720.09;4934009;29;20511;-67
2021/05/01 03:43:28;;;;;;;42.27;20.03;;;;;;;5.10;88.54;95713.88;4950233;29;20051;-67
2021/05/01 03:45:54;;;;;;;48.60;22.73;;;;;;;5.03;88.04;95710.53;4934668;29;20278;-67
2021/05/01 03:48:20;;;;;;;46.17;20.92;;;;;;;5.10;88.36;95695.63;4934668;29;20047;-68
2021/05/01 03:50:46;;;;;;;45.08;21.63;;;;;;;5.44;87.24;95689.91;4937366;29;20136;-67
2021/05/01 03:53:13;;;;;;;43.03;20.52;;;;;;;5.52;86.57;95683.59;4938132;29;20409;-69
2021/05/01 03:55:39;;;;;;;47.20;21.73;;;;;;;5.24;85.18;95686.69;4937820;29;20503;-68
2021/05/01 03:58:06;;;;;;;47.78;22.65;;;;;;;5.15;86.90;95704.41;4937838;29;20051;-68
2021/05/01 04:00:31;;;;;;;44.35;21.02;;;;;;;5.11;87.80;95710.25;4937896;29;20486;-68
2021/05/01 04:02:57;;;;;;;48.17;22.23;;;;;;;5.12;87.81;95719.69;4938198;29;20078;-68
2021/05/01 04:05:23;;;;;;;45.88;20.42;;;;;;;5.12;86.20;95714.47;4937989;29;20044;-68
2021/05/01 04:07:49;;;;;;;45.20;20.77;;;;;;;4.97;86.53;95710.38;4939016;29;20043;-69
2021/05/01 04:10:15;;;;;;;45.45;21.40;;;;;;;5.23;86.94;95727.59;4941929;29;20047;-67
2021/05/01 04:12:41;;;;;;;47.53;21.77;;;;;;;5.08;86.54;95740.16;4938300;29;20050;-68
2021/05/01 04:15:12;;;;;;;43.58;20.65;;;;;;;5.05;85.92;95734.56;4938186;29;20040;-68
2021/05/01 04:17:37;;;;;;;49.75;22.40;;;;;;;5.00;86.60;95722.97;4937371;29;20419;-68
2021/05/01 04:20:07;;;;;;;45.70;21.45;;;;;;;4.94;86.75;95716.00;4943092;29;20500;-67
2021/05/01 04:22:33;;;;;;;47.10;21.75;;;;;;;4.98;86.28;95735.41;4948763;29;20043;-68
2021/05/01 04:24:59;;;;;;;44.60;20.23;;;;;;;4.96;86.21;95732.22;4964174;29;20105;-68
2021/05/01 04:27:25;;;;;;;44.03;19.25;;;;;;;5.29;85.76;95744.22;4948057;29;20059;-67
2021/05/01 04:29:51;;;;;;;44.95;21.33;;;;;;;5.41;85.41;95749.53;4949983;29;20044;-68
2021/05/01 04:32:17;;;;;;;39.67;19.08;;;;;;;5.55;83.89;95755.44;4949949;29;20051;-69
2021/05/01 04:34:43;;;;;;;44.63;20.50;;;;;;;5.44;84.88;95760.34;4950602;29;20046;-68
2021/05/01 04:37:09;;;;;;;43.33;19.98;;;;;;;5.52;84.59;95757.44;4944410;29;20048;-68
2021/05/01 04:39:34;;;;;;;41.22;20.48;;;;;;;5.64;83.53;95754.91;4937311;29;20044;-68
2021/05/01 04:42:00;;;;;;;42.30;19.70;;;;;;;5.54;83.92;95733.72;4936894;29;20040;-68
2021/05/01 04:44:26;;;;;;;43.60;20.75;;;;;;;5.49;84.88;95736.22;4937051;29;20035;-67
2021/05/01 04:46:52;;;;;;;44.72;21.33;;;;;;;5.44;84.28;95718.59;4937698;29;20074;-68
2021/05/01 04:49:20;;;;;;;45.40;21.15;;;;;;;5.39;84.86;95721.06;4937716;29;20048;-68
2021/05/01 04:51:48;;;;;;;44.00;19.85;;;;;;;5.50;84.98;95714.31;4936967;29;20050;-68
2021/05/01 04:54:16;;;;;;;44.33;20.88;;;;;;;5.81;83.64;95726.44;4937297;29;20071;-68
2021/05/01 04:56:45;;;;;;;44.33;21.73;;;;;;;5.78;82.64;95729.50;4937368;29;20173;-69
2021/05/01 04:59:10;;;;;;;43.72;21.00;;;;;;;5.63;84.62;95734.25;4938422;29;20066;-68
2021/05/01 05:01:36;;;;;;;44.35;20.58;;;;;;;5.81;83.48;95734.25;4939109;29;20074;-69
2021/05/01 05:04:05;;;;;;;39.08;18.17;;;;;;;5.94;82.29;95734.16;4939517;29;20043;-68
2021/05/01 05:06:32;;;;;;;42.97;20.50;;;;;;;5.73;83.40;95732.75;4937209;29;20048;-67
2021/05/01 05:09:02;;;;;;;45.85;20.25;;;;;;;5.72;84.56;95730.38;4936793;29;20402;-66
2021/05/01 05:11:27;;;;;;;48.80;21.02;;;;;;;5.77;83.71;95727.91;4936796;29;20051;-68
2021/05/01 05:13:53;;;;;;;43.45;20.98;;;;;;;5.67;83.28;95720.56;4951217;29;20381;-68
2021/05/01 05:16:19;;;;;;;42.50;20.25;;;;;;;5.74;84.02;95710.84;4936491;29;20388;-68
2021/05/01 05:18:45;;;;;;;46.20;20.58;;;;;;;5.93;83.08;95711.69;4936551;29;20071;-68
2021/05/01 05:21:11;;;;;;;46.10;20.92;;;;;;;6.22;82.89;95709.34;4938927;29;20078;-68
2021/05/01 05:23:40;;;;;;;40.58;19.50;;;;;;;6.15;83.09;95698.19;4939116;29;20040;-68
2021/05/01 05:26:05;;;;;;;43.65;20.73;;;;;;;5.83;82.97;95710.56;4938533;29;20062;-68
2021/05/01 05:28:31;;;;;;;45.50;20.52;;;;;;;6.03;83.82;95717.19;4939041;29;20090;-67
2021/05/01 05:30:56;;;;;;;44.95;21.08;;;;;;;5.92;82.89;95710.09;4937541;29;20139;-67
2021/05/01 05:33:25;;;;;;;40.97;19.15;;;;;;;6.26;82.25;95706.06;4936330;29;20042;-67
2021/05/01 05:35:51;;;;;;;41.58;19.13;;;;;;;6.27;82.65;95707.66;4937186;29;20058;-68
2021/05/01 05:38:16;;;;;;;39.53;17.58;;;;;;;6.43;81.77;95700.22;4936999;29;20127;-67
2021/05/01 05:40:43;;;;;;;38.85;18.27;;;;;;;6.73;80.54;95711.47;4935772;29;20043;-68
2021/05/01 05:43:10;;;;;;;41.08;18.85;;;;;;;6.66;80.94;95700.28;4936170;29;20036;-68
2021/05/01 05:45:36;;;;;;;45.72;20.13;;;;;;;6.12;82.34;95696.00;4935736;29;20050;-68
2021/05/01 05:48:05;;;;;;;47.50;20.85;;;;;;;5.99;83.84;95691.75;4936389;29;20440;-68
2021/05/01 05:50:31;;;;;;;43.47;19.77;;;;;;;5.92;84.45;95689.22;4935874;29;20047;-68
2021/05/01 05:52:57;;;;;;;41.47;19.48;;;;;;;5.97;83.96;95681.53;4936408;29;20118;-67
2021/05/01 05:55:25;;;;;;;43.63;19.30;;;;;;;6.00;84.56;95686.28;4935959;29;20107;-68
2021/05/01 05:57:54;;;;;;;45.85;20.08;;;;;;;5.93;84.43;95685.59;4936627;29;20058;-67
2021/05/01 06:00:22;;;;;;;45.92;18.95;;;;;;;6.05;85.07;95683.03;4936526;29;20039;-68
2021/05/01 06:02:48;;;;;;;45.45;18.75;;;;;;;6.43;83.13;95679.31;4951328;29;20058;-68
2021/05/01 06:05:18;;;;;;;39.85;16.20;;;;;;;6.35;81.67;95677.00;4935853;29;20047;-69
2021/05/01 06:07:46;;;;;;;43.20;18.63;;;;;;;6.20;82.70;95680.03;4936943;29;20107;-69
2021/05/01 06:10:13;;;;;;;41.85;17.00;;;;;;;6.35;82.92;95677.00;4934982;29;20050;-69
2021/05/01 06:12:39;;;;;;;42.38;18.17;;;;;;;6.38;82.70;95676.59;4936079;29;20474;-68
2021/05/01 06:15:08;;;;;;;40.80;17.40;;;;;;;6.49;82.07;95673.22;4935801;29;20099;-68
2021/05/01 06:17:34;;;;;;;42.17;17.30;;;;;;;6.52;81.80;95670.97;4936437;29;20126;-68
2021/05/01 06:20:02;;;;;;;41.53;16.70;;;;;;;6.54;81.29;95660.28;4935825;29;20507;-69
2021/05/01 06:22:28;;;;;;;36.38;15.57;;;;;;;6.48;82.56;95669.00;4935650;29;20051;-69
2021/05/01 06:24:54;;;;;;;42.28;18.02;;;;;;;6.54;82.30;95665.50;4935931;29;20043;-69
2021/05/01 06:27:21;;;;;;;39.60;16.80;;;;;;;6.65;82.06;95677.00;4935950;29;20061;-69
2021/05/01 06:29:48;;;;;;;34.13;15.05;;;;;;;6.88;81.07;95687.50;4935760;29;20046;-69
2021/05/01 06:32:16;;;;;;;33.88;15.43;;;;;;;7.08;79.96;95692.44;4935701;29;20503;-69
2021/05/01 06:34:48;;;;;;;34.38;15.32;;;;;;;6.99;80.23;95691.94;4935630;29;20112;-70
2021/05/01 06:37:17;;;;;;;33.78;14.65;;;;;;;6.94;80.22;95689.25;4935551;29;20127;-69
2021/05/01 06:39:45;;;;;;;37.65;16.33;;;;;;;6.99;82.07;95688.53;4935519;29;20107;-69
2021/05/01 06:42:17;;;;;;;38.70;16.02;;;;;;;7.06;81.24;95687.44;4934734;29;20534;-69
2021/05/01 06:44:48;;;;;;;32.65;14.57;;;;;;;7.25;79.77;95692.53;4935199;29;20067;-69
2021/05/01 06:47:16;;;;;;;34.58;14.60;;;;;;;7.07;79.68;95686.41;4935376;29;20043;-68
2021/05/01 06:49:50;;;;;;;;;;;;;;;7.20;80.37;95695.03;4935625;29;20507;-68
2021/05/01 06:52:19;;;;;;;33.03;15.05;;;;;;;7.19;79.41;95688.22;4935123;29;20394;-69
2021/05/01 06:54:47;;;;;;;31.17;13.90;;;;;;;7.11;78.60;95691.97;4935012;29;20051;-68
2021/05/01 06:57:14;;;;;;;30.17;13.93;;;;;;;7.01;79.97;95682.06;4949688;29;20059;-68
2021/05/01 06:59:41;;;;;;;32.95;14.25;;;;;;;6.98;80.74;95681.72;4935261;29;20464;-69
2021/05/01 07:02:08;;;;;;;32.72;14.77;;;;;;;7.05;80.65;95698.13;4913824;29;20064;-68
2021/05/01 07:04:35;;;;;;;32.83;14.48;;;;;;;6.92;80.84;95693.88;4913679;29;20048;-68
2021/05/01 07:07:01;;;;;;;33.72;13.85;;;;;;;6.97;80.30;95696.63;4914591;29;20063;-70
2021/05/01 07:09:29;;;;;;;33.58;14.93;;;;;;;6.79;81.53;95684.44;4913741;29;20048;-69
2021/05/01 07:11:54;;;;;;;;;;;;;;;6.60;81.08;95679.50;4914578;29;20056;-68
2021/05/01 07:14:24;;;;;;;29.88;12.77;;;;;;;6.56;81.95;95685.19;4913533;29;19923;-69
2021/05/01 07:16:50;;;;;;;33.15;14.52;;;;;;;6.68;82.92;95682.59;4913260;29;20100;-68
2021/05/01 07:19:18;;;;;;;32.00;13.93;;;;;;;6.68;81.81;95682.59;4913694;29;20160;-68
2021/05/01 07:21:44;;;;;;;33.90;14.60;;;;;;;6.55;82.13;95675.72;4913435;29;20048;-69
2021/05/01 07:24:10;;;;;;;31.80;14.27;;;;;;;6.87;81.50;95669.44;4913316;29;20099;-69
2021/05/01 07:26:37;;;;;;;33.92;14.95;;;;;;;6.82;82.33;95673.50;4916936;29;20048;-69
2021/05/01 07:29:07;;;;;;;34.73;14.33;;;;;;;6.88;81.23;95666.59;4918094;29;20059;-69
2021/05/01 07:31:37;;;;;;;35.65;14.93;;;;;;;7.03;82.09;95656.47;4919056;29;20460;-69
2021/05/01 07:34:10;;;;;;;34.08;14.40;;;;;;;6.84;81.27;95655.78;4937391;29;20056;-69
2021/05/01 07:36:39;;;;;;;31.25;13.77;;;;;;;7.12;81.86;95651.72;4938192;29;20039;-70
2021/05/01 07:39:08;;;;;;;31.25;13.60;;;;;;;7.09;80.61;95642.50;4938131;29;20094;-69
2021/05/01 07:41:36;;;;;;;31.90;14.48;;;;;;;7.12;80.09;95650.94;4960245;23;20112;-79
2021/05/01 07:44:03;;;;;;;33.35;14.13;;;;;;;7.09;81.38;95649.56;4951728;29;20044;-78
2021/05/01 07:46:37;;;;;;;31.83;14.43;;;;;;;7.32;81.37;95643.53;4943457;29;20047;-78
2021/05/01 07:49:04;;;;;;;33.03;14.30;;;;;;;7.09;79.84;95642.50;4940561;29;20575;-76
2021/05/01 07:51:34;;;;;;;32.17;13.13;;;;;;;7.09;81.35;95646.94;4941427;29;20052;-76
2021/05/01 07:54:00;;;;;;;28.33;13.40;;;;;;;7.14;80.86;95651.50;4943456;29;20044;-77
2021/05/01 07:56:27;;;;;;;29.67;13.13;;;;;;;7.15;81.05;95650.47;4941721;29;20530;-75
2021/05/01 07:58:52;;;;;;;33.80;14.18;;;;;;;7.05;81.29;95657.06;4943907;29;20051;-76
2021/05/01 08:01:18;;;;;;;30.90;13.02;;;;;;;7.09;80.49;95649.56;4943132;29;20040;-77
2021/05/01 08:03:44;;;;;;;29.50;13.00;;;;;;;7.15;79.98;95645.22;4941522;29;20050;-77
2021/05/01 08:06:09;;;;;;;32.03;13.32;;;;;;;7.58;80.65;95639.63;4939928;29;20051;-77
2021/05/01 08:08:35;;;;;;;29.20;13.15;;;;;;;7.34;78.57;95641.47;4941127;29;20048;-78
2021/05/01 08:11:01;;;;;;;25.70;11.55;;;;;;;7.58;78.10;95650.88;4941391;29;20052;-76
2021/05/01 08:13:30;;;;;;;29.38;12.68;;;;;;;7.43;78.68;95661.06;4945350;29;20035;-78
2021/05/01 08:15:56;;;;;;;30.30;13.55;;;;;;;7.13;78.88;95657.75;4943441;29;20047;-76
2021/05/01 08:18:22;;;;;;;29.55;12.32;;;;;;;7.29;79.08;95657.06;4942432;29;20044;-76
2021/05/01 08:20:49;;;;;;;30.20;13.77;;;;;;;7.32;79.64;95659.25;4946981;29;20044;-76
2021/05/01 08:23:15;;;;;;;31.05;13.23;;;;;;;7.41;79.04;95660.47;4950004;29;20415;-77
2021/05/01 08:25:41;;;;;;;29.58;13.10;;;;;;;7.63;77.52;95665.91;4946770;29;20048;-76
2021/05/01 08:28:06;;;;;;;28.35;13.20;;;;;;;7.76;76.88;95662.25;4941461;29;20043;-77
2021/05/01 08:30:33;;;;;;;28.85;12.73;;;;;;;8.09;75.95;95657.16;4943314;29;20051;-77
2021/05/01 08:32:59;;;;;;;28.45;13.15;;;;;;;8.13;74.95;95653.03;4943595;29;20067;-78
2021/05/01 08:35:25;;;;;;;27.15;12.63;;;;;;;8.08;75.13;95647.69;4960443;29;20396;-75
2021/05/01 08:37:51;;;;;;;30.67;12.57;;;;;;;8.24;74.42;95643.53;4944410;29;20075;-77
2021/05/01 08:40:16;;;;;;;32.30;14.10;;;;;;;8.19;74.92;95650.50;4944591;29;20851;-79
2021/05/01 08:42:46;;;;;;;28.95;13.30;;;;;;;8.30;73.88;95641.81;4952309;29;20031;-77
2021/05/01 08:45:15;;;;;;;28.92;13.88;;;;;;;8.18;74.34;95649.72;4957651;29;20048;-77
2021/05/01 08:47:43;;;;;;;27.05;12.63;;;;;;;8.28;74.29;95654.31;4964304;29;20047;-77
2021/05/01 08:50:34;;;;;;;28.33;13.40;;;;;;;7.98;74.91;95660.59;4945696;29;20043;-75
2021/05/01 08:53:06;;;;;;;31.05;14.75;;;;;;;7.90;75.37;95660.94;4944590;29;20439;-77
2021/05/01 08:55:38;;;;;;;30.75;13.63;;;;;;;8.05;75.50;95669.09;4944138;29;20570;-77
2021/05/01 08:58:05;;;;;;;30.67;13.55;;;;;;;8.34;75.76;95666.50;4945976;29;20048;-78
2021/05/01 09:00:31;;;;;;;29.65;13.10;;;;;;;7.93;74.48;95668.34;4945310;29;20077;-75
2021/05/01 09:03:02;;;;;;;28.73;12.90;;;;;;;7.66;75.93;95662.84;4947603;29;20054;-76
2021/05/01 09:05:29;;;;;;;29.23;13.43;;;;;;;8.19;74.63;95646.06;4953922;29;20067;-77
2021/05/01 09:07:56;;;;;;;26.58;13.55;;;;;;;8.21;74.00;95648.44;4947217;29;20047;-77
2021/05/01 09:10:24;;;;;;;31.43;14.37;;;;;;;8.31;74.88;95640.78;4944051;29;20047;-77
2021/05/01 09:12:52;;;;;;;28.52;12.77;;;;;;;8.47;73.84;95642.66;4942514;29;20579;-75
2021/05/01 09:15:21;;;;;;;;;;;;;;;8.53;73.59;95648.78;4943276;29;20125;-76
2021/05/01 09:17:50;;;;;;;29.08;12.82;;;;;;;8.51;74.45;95654.28;4949163;29;19929;-77
2021/05/01 09:20:17;;;;;;;30.27;13.55;;;;;;;8.59;74.01;95650.47;4943898;29;20091;-76
2021/05/01 09:22:57;;;;;;;30.92;13.98;;;;;;;8.19;76.02;95661.00;4942647;29;20044;-77
2021/05/01 09:25:27;;;;;;;35.53;16.02;;;;;;;8.16;76.00;95657.78;4947974;29;20099;-75
2021/05/01 09:28:10;;;;;;;31.20;14.57;;;;;;;8.06;75.31;95657.59;4954409;29;20491;-75
2021/05/01 09:30:38;;;;;;;31.52;15.02;;;;;;;8.15;75.75;95658.03;4951895;29;20043;-75
2021/05/01 09:33:25;;;;;;;31.70;14.13;;;;;;;8.49;74.02;95663.38;4951281;29;20043;-78
2021/05/01 09:36:04;;;;;;;29.00;12.93;;;;;;;8.92;72.52;95668.03;4963427;29;20102;-79
2021/05/01 09:38:31;;;;;;;28.33;13.48;;;;;;;8.77;73.37;95663.38;4965675;29;20286;-79
2021/05/01 09:40:57;;;;;;;29.83;13.30;;;;;;;8.58;73.69;95649.66;4950736;29;20047;-77
2021/05/01 09:43:23;;;;;;;30.52;13.75;;;;;;;8.60;72.97;95660.69;4959326;29;20099;-78
2021/05/01 09:45:51;;;;;;;25.55;13.05;;;;;;;8.55;73.00;95652.75;4944989;29;20043;-77
2021/05/01 09:48:18;;;;;;;29.65;14.25;;;;;;;8.31;72.90;95659.13;4945514;29;20503;-77
2021/05/01 09:50:47;;;;;;;30.92;14.25;;;;;;;8.24;74.02;95655.84;4961055;29;20063;-75
2021/05/01 09:53:14;;;;;;;;;;;;;;;8.19;74.34;95655.75;4947403;29;20111;-77
2021/05/01 09:55:54;;;;;;;31.02;13.70;;;;;;;8.15;74.66;95650.97;4950753;29;19922;-76
2021/05/01 09:58:23;;;;;;;28.73;13.43;;;;;;;8.78;72.40;95653.66;4943788;29;20058;-75
2021/05/01 10:00:50;;;;;;;29.45;13.52;;;;;;;9.01;71.16;95650.09;4939406;29;20044;-76
2021/05/01 10:03:31;;;;;;;29.95;14.48;;;;;;;8.79;71.43;95657.88;4936693;29;20159;-76
2021/05/01 10:06:00;;;;;;;31.23;14.10;;;;;;;8.67;72.46;95657.94;4943010;29;20123;-76
2021/05/01 10:08:30;;;;;;;29.52;14.23;;;;;;;8.66;71.69;95657.16;4940159;29;20048;-78
2021/05/01 10:10:57;;;;;;;33.85;15.57;;;;;;;8.49;72.75;95656.31;4939366;29;20055;-77
2021/05/01 10:13:23;;;;;;;30.38;14.60;;;;;;;8.50;72.10;95650.06;4938307;29;20046;-77
2021/05/01 10:15:49;;;;;;;28.98;14.02;;;;;;;8.36;72.23;95641.69;4937981;29;20423;-76
2021/05/01 10:18:20;;;;;;;33.33;13.65;;;;;;;8.72;71.33;95631.81;4937195;29;20040;-76
2021/05/01 10:20:51;;;;;;;28.00;12.98;;;;;;;9.15;69.87;95638.25;4937516;29;20046;-76
2021/05/01 10:23:18;;;;;;;25.65;12.40;;;;;;;9.11;69.93;95627.44;4938334;29;20063;-76
2021/05/01 10:25:49;;;;;;;31.60;13.25;;;;;;;9.18;69.02;95633.28;4937691;29;20048;-78
2021/05/01 10:28:19;;;;;;;26.48;13.18;;;;;;;8.89;69.97;95622.13;4940593;29;20047;-78
2021/05/01 10:30:51;;;;;;;30.33;14.57;;;;;;;8.85;70.84;95617.59;4939354;29;20052;-77
2021/05/01 10:35:51;;;;;;;28.63;13.90;;;;;;;8.81;71.19;95616.47;4943898;29;20135;-80
2021/05/01 10:38:19;;;;;;;29.60;14.57;;;;;;;8.91;70.34;95616.63;4938516;29;20051;-76
2021/05/01 10:40:48;;;;;;;;;;;;;;;9.22;70.30;95622.34;4936712;29;20060;-76
2021/05/01 10:43:19;;;;;;;26.98;12.93;;;;;;;9.25;69.39;95624.44;4941825;29;19929;-77
2021/05/01 10:45:50;;;;;;;26.20;12.57;;;;;;;9.38;68.68;95632.78;4940924;29;20057;-75
2021/05/01 10:48:15;;;;;;;27.63;11.93;;;;;;;9.58;68.23;95637.53;4939229;29;20051;-77
2021/05/01 10:50:43;;;;;;;27.27;13.05;;;;;;;9.65;67.85;95638.13;4939668;29;20047;-77
2021/05/01 10:53:19;;;;;;;27.08;12.38;;;;;;;9.80;66.80;95626.25;4940533;29;20059;-76
2021/05/01 10:55:50;;;;;;;24.77;11.40;;;;;;;9.41;67.42;95627.03;4937703;29;20047;-77
2021/05/01 10:58:29;;;;;;;21.77;10.60;;;;;;;9.89;66.03;95633.44;4937786;29;20419;-76
2021/05/01 11:00:55;;;;;;;21.08;10.25;;;;;;;10.09;65.24;95625.00;4952230;28;20115;-76
2021/05/01 11:03:24;;;;;;;21.27;10.85;;;;;;;10.15;64.59;95626.63;4951842;29;20457;-76
2021/05/01 11:05:53;;;;;;;24.05;11.13;;;;;;;10.25;64.50;95620.72;4938256;29;20415;-76
2021/05/01 11:08:32;;;;;;;21.83;11.00;;;;;;;10.05;65.61;95610.75;4938777;29;20040;-77
2021/05/01 11:10:59;;;;;;;23.88;11.20;;;;;;;9.62;66.00;95617.59;4945855;29;20051;-77
2021/05/01 11:13:27;;;;;;;22.25;10.82;;;;;;;10.09;66.56;95616.31;4954648;28;20048;-76
2021/05/01 11:15:57;;;;;;;24.10;11.23;;;;;;;10.67;63.96;95617.44;4936519;29;20455;-77
2021/05/01 11:18:26;;;;;;;20.35;10.40;;;;;;;10.72;63.22;95623.53;4938391;29;20502;-76
2021/05/01 11:20:57;;;;;;;19.70;9.85;;;;;;;10.57;63.68;95618.13;4954027;28;20099;-77
2021/05/01 11:23:26;;;;;;;21.13;10.35;;;;;;;10.53;63.39;95617.03;4939052;29;20128;-76
2021/05/01 11:25:54;;;;;;;20.00;10.07;;;;;;;10.16;65.22;95615.06;4952295;29;20468;-76
2021/05/01 11:28:25;;;;;;;19.73;9.10;;;;;;;10.25;65.01;95612.84;4940442;29;20101;-75
2021/05/01 11:30:54;;;;;;;21.08;10.82;;;;;;;10.02;66.57;95613.88;4947201;29;20064;-77